sensor_id;sensor_type;location;lat;lon;timestamp;P1;durP1;ratioP1;P2;durP2;ratioP2
25435;SDS011;13363;52.772;-3.890;2022-07-24T00:01:36;1.10;;;0.80;;
25435;SDS011;13363;52.772;-3.890;2022-07-24T00:04:03;1.20;;;0.87;;
25435;SDS011;13363;52.772;-3.890;2022-07-24T00:06:29;0.70;;;0.70;;
25435;SDS011;13363;52.772;-3.890;2022-07-24T00:08:55;2.27;;;0.90;;
25435;SDS011;13363;52.772;-3.890;2022-07-24T00:11:21;1.33;;;0.73;;
25435;SDS011;13363;52.772;-3.890;2022-07-24T00:13:47;0.93;;;0.80;;
25435;SDS011;13363;52.772;-3.890;2022-07-24T00:16:13;0.70;;;0.70;;
25435;SDS011;13363;52.772;-3.890;2022-07-24T00:18:39;0.97;;;0.90;;
25435;SDS011;13363;52.772;-3.890;2022-07-24T00:21:05;4.20;;;1.30;;
25435;SDS011;13363;52.772;-3.890;2022-07-24T00:23:31;1.40;;;0.97;;
25435;SDS011;13363;52.772;-3.890;2022-07-24T00:25:57;0.77;;;0.73;;
25435;SDS011;13363;52.772;-3.890;2022-07-24T00:28:23;1.77;;;0.90;;
25435;SDS011;13363;52.772;-3.890;2022-07-24T00:30:49;2.47;;;0.60;;
25435;SDS011;13363;52.772;-3.890;2022-07-24T00:33:15;1.13;;;0.80;;
25435;SDS011;13363;52.772;-3.890;2022-07-24T00:35:41;1.87;;;0.80;;
25435;SDS011;13363;52.772;-3.890;2022-07-24T00:38:08;0.70;;;0.70;;
25435;SDS011;13363;52.772;-3.890;2022-07-24T00:40:34;1.33;;;0.73;;
25435;SDS011;13363;52.772;-3.890;2022-07-24T00:43:02;1.90;;;1.40;;
25435;SDS011;13363;52.772;-3.890;2022-07-24T00:45:28;6.57;;;2.27;;
25435;SDS011;13363;52.772;-3.890;2022-07-24T00:47:55;3.90;;;2.43;;
25435;SDS011;13363;52.772;-3.890;2022-07-24T00:50:21;3.40;;;2.37;;
25435;SDS011;13363;52.772;-3.890;2022-07-24T00:52:47;2.53;;;2.17;;
25435;SDS011;13363;52.772;-3.890;2022-07-24T00:55:13;2.53;;;1.63;;
25435;SDS011;13363;52.772;-3.890;2022-07-24T00:57:40;1.67;;;1.37;;
25435;SDS011;13363;52.772;-3.890;2022-07-24T01:00:09;2.43;;;1.87;;
25435;SDS011;13363;52.772;-3.890;2022-07-24T01:02:38;5.87;;;2.40;;
25435;SDS011;13363;52.772;-3.890;2022-07-24T01:05:08;3.30;;;2.90;;
25435;SDS011;13363;52.772;-3.890;2022-07-24T01:07:35;6.77;;;3.10;;
25435;SDS011;13363;52.772;-3.890;2022-07-24T01:10:01;9.23;;;3.50;;
25435;SDS011;13363;52.772;-3.890;2022-07-24T01:12:28;9.60;;;4.37;;
25435;SDS011;13363;52.772;-3.890;2022-07-24T01:14:59;10.77;;;4.77;;
25435;SDS011;13363;52.772;-3.890;2022-07-24T01:17:29;9.93;;;3.33;;
25435;SDS011;13363;52.772;-3.890;2022-07-24T01:19:56;12.13;;;5.60;;
25435;SDS011;13363;52.772;-3.890;2022-07-24T01:22:23;10.17;;;5.97;;
25435;SDS011;13363;52.772;-3.890;2022-07-24T01:24:50;10.87;;;5.50;;
25435;SDS011;13363;52.772;-3.890;2022-07-24T01:27:16;12.60;;;5.43;;
25435;SDS011;13363;52.772;-3.890;2022-07-24T01:29:43;15.83;;;5.57;;
25435;SDS011;13363;52.772;-3.890;2022-07-24T01:32:09;16.63;;;4.60;;
25435;SDS011;13363;52.772;-3.890;2022-07-24T01:34:35;10.77;;;5.00;;
25435;SDS011;13363;52.772;-3.890;2022-07-24T01:37:01;8.87;;;4.20;;
25435;SDS011;13363;52.772;-3.890;2022-07-24T01:39:27;12.03;;;5.13;;
25435;SDS011;13363;52.772;-3.890;2022-07-24T01:41:53;10.57;;;4.37;;
25435;SDS011;13363;52.772;-3.890;2022-07-24T01:44:19;10.27;;;4.30;;
25435;SDS011;13363;52.772;-3.890;2022-07-24T01:46:45;8.07;;;4.23;;
25435;SDS011;13363;52.772;-3.890;2022-07-24T01:49:11;9.67;;;4.20;;
25435;SDS011;13363;52.772;-3.890;2022-07-24T01:51:37;11.93;;;4.70;;
25435;SDS011;13363;52.772;-3.890;2022-07-24T01:54:03;10.83;;;4.10;;
25435;SDS011;13363;52.772;-3.890;2022-07-24T01:56:30;14.90;;;4.90;;
25435;SDS011;13363;52.772;-3.890;2022-07-24T01:58:56;14.13;;;5.03;;
25435;SDS011;13363;52.772;-3.890;2022-07-24T02:01:23;20.80;;;4.23;;
25435;SDS011;13363;52.772;-3.890;2022-07-24T02:03:49;11.57;;;4.13;;
25435;SDS011;13363;52.772;-3.890;2022-07-24T02:06:15;14.10;;;4.93;;
25435;SDS011;13363;52.772;-3.890;2022-07-24T02:08:41;13.90;;;5.57;;
25435;SDS011;13363;52.772;-3.890;2022-07-24T02:11:07;13.67;;;5.47;;
25435;SDS011;13363;52.772;-3.890;2022-07-24T02:13:33;9.60;;;4.80;;
25435;SDS011;13363;52.772;-3.890;2022-07-24T02:15:59;11.77;;;5.47;;
25435;SDS011;13363;52.772;-3.890;2022-07-24T02:18:25;12.17;;;5.50;;
25435;SDS011;13363;52.772;-3.890;2022-07-24T02:20:52;8.23;;;4.33;;
25435;SDS011;13363;52.772;-3.890;2022-07-24T02:23:18;11.13;;;5.13;;
25435;SDS011;13363;52.772;-3.890;2022-07-24T02:25:45;7.73;;;4.60;;
25435;SDS011;13363;52.772;-3.890;2022-07-24T02:28:11;11.10;;;5.20;;
25435;SDS011;13363;52.772;-3.890;2022-07-24T02:30:38;13.17;;;5.83;;
25435;SDS011;13363;52.772;-3.890;2022-07-24T02:33:04;15.93;;;5.10;;
25435;SDS011;13363;52.772;-3.890;2022-07-24T02:35:30;15.03;;;6.63;;
25435;SDS011;13363;52.772;-3.890;2022-07-24T02:37:56;11.10;;;5.10;;
25435;SDS011;13363;52.772;-3.890;2022-07-24T02:40:21;18.23;;;6.63;;
25435;SDS011;13363;52.772;-3.890;2022-07-24T02:42:47;15.63;;;6.03;;
25435;SDS011;13363;52.772;-3.890;2022-07-24T02:45:13;11.03;;;4.97;;
25435;SDS011;13363;52.772;-3.890;2022-07-24T02:47:46;11.13;;;5.50;;
25435;SDS011;13363;52.772;-3.890;2022-07-24T02:50:17;8.13;;;4.37;;
25435;SDS011;13363;52.772;-3.890;2022-07-24T02:52:44;18.47;;;6.37;;
25435;SDS011;13363;52.772;-3.890;2022-07-24T02:55:10;10.00;;;4.53;;
25435;SDS011;13363;52.772;-3.890;2022-07-24T02:57:36;10.17;;;5.50;;
25435;SDS011;13363;52.772;-3.890;2022-07-24T03:00:05;14.10;;;6.13;;
25435;SDS011;13363;52.772;-3.890;2022-07-24T03:02:33;12.63;;;4.00;;
25435;SDS011;13363;52.772;-3.890;2022-07-24T03:04:59;11.33;;;5.20;;
25435;SDS011;13363;52.772;-3.890;2022-07-24T03:07:26;11.97;;;5.77;;
25435;SDS011;13363;52.772;-3.890;2022-07-24T03:09:53;15.00;;;5.70;;
25435;SDS011;13363;52.772;-3.890;2022-07-24T03:12:18;15.93;;;6.10;;
25435;SDS011;13363;52.772;-3.890;2022-07-24T03:14:44;18.23;;;6.03;;
25435;SDS011;13363;52.772;-3.890;2022-07-24T03:17:10;13.37;;;5.90;;
25435;SDS011;13363;52.772;-3.890;2022-07-24T03:19:36;9.23;;;4.40;;
25435;SDS011;13363;52.772;-3.890;2022-07-24T03:22:02;11.90;;;5.53;;
25435;SDS011;13363;52.772;-3.890;2022-07-24T03:24:28;12.70;;;5.40;;
25435;SDS011;13363;52.772;-3.890;2022-07-24T03:26:54;15.83;;;5.40;;
25435;SDS011;13363;52.772;-3.890;2022-07-24T03:29:20;15.97;;;6.53;;
25435;SDS011;13363;52.772;-3.890;2022-07-24T03:31:46;14.37;;;5.83;;
25435;SDS011;13363;52.772;-3.890;2022-07-24T03:34:12;15.60;;;5.30;;
25435;SDS011;13363;52.772;-3.890;2022-07-24T03:36:38;18.63;;;5.70;;
25435;SDS011;13363;52.772;-3.890;2022-07-24T03:39:04;12.40;;;5.00;;
25435;SDS011;13363;52.772;-3.890;2022-07-24T03:41:30;14.17;;;5.67;;
25435;SDS011;13363;52.772;-3.890;2022-07-24T03:43:56;12.73;;;6.27;;
25435;SDS011;13363;52.772;-3.890;2022-07-24T03:46:22;16.47;;;5.47;;
25435;SDS011;13363;52.772;-3.890;2022-07-24T03:48:48;11.93;;;6.80;;
25435;SDS011;13363;52.772;-3.890;2022-07-24T03:51:14;13.10;;;5.50;;
25435;SDS011;13363;52.772;-3.890;2022-07-24T03:53:40;13.93;;;5.93;;
25435;SDS011;13363;52.772;-3.890;2022-07-24T03:56:07;15.63;;;5.57;;
25435;SDS011;13363;52.772;-3.890;2022-07-24T03:58:33;10.60;;;4.37;;
25435;SDS011;13363;52.772;-3.890;2022-07-24T04:00:59;14.80;;;4.97;;
25435;SDS011;13363;52.772;-3.890;2022-07-24T04:03:25;14.57;;;6.00;;
25435;SDS011;13363;52.772;-3.890;2022-07-24T04:05:51;12.83;;;5.70;;
25435;SDS011;13363;52.772;-3.890;2022-07-24T04:08:17;14.53;;;5.33;;
25435;SDS011;13363;52.772;-3.890;2022-07-24T04:10:43;16.90;;;5.50;;
25435;SDS011;13363;52.772;-3.890;2022-07-24T04:13:09;10.13;;;5.27;;
25435;SDS011;13363;52.772;-3.890;2022-07-24T04:15:36;11.87;;;4.87;;
25435;SDS011;13363;52.772;-3.890;2022-07-24T04:18:02;11.70;;;5.13;;
25435;SDS011;13363;52.772;-3.890;2022-07-24T04:20:28;11.00;;;4.47;;
25435;SDS011;13363;52.772;-3.890;2022-07-24T04:22:54;16.33;;;5.30;;
25435;SDS011;13363;52.772;-3.890;2022-07-24T04:25:19;14.07;;;5.07;;
25435;SDS011;13363;52.772;-3.890;2022-07-24T04:27:45;13.70;;;4.70;;
25435;SDS011;13363;52.772;-3.890;2022-07-24T04:30:13;8.97;;;4.43;;
25435;SDS011;13363;52.772;-3.890;2022-07-24T04:32:39;12.50;;;4.60;;
25435;SDS011;13363;52.772;-3.890;2022-07-24T04:35:05;6.87;;;4.37;;
25435;SDS011;13363;52.772;-3.890;2022-07-24T04:37:31;10.03;;;4.33;;
25435;SDS011;13363;52.772;-3.890;2022-07-24T04:39:57;9.00;;;4.43;;
25435;SDS011;13363;52.772;-3.890;2022-07-24T04:42:23;13.37;;;5.03;;
25435;SDS011;13363;52.772;-3.890;2022-07-24T04:44:49;13.07;;;4.60;;
25435;SDS011;13363;52.772;-3.890;2022-07-24T04:47:15;10.53;;;5.00;;
25435;SDS011;13363;52.772;-3.890;2022-07-24T04:49:41;10.67;;;4.63;;
25435;SDS011;13363;52.772;-3.890;2022-07-24T04:52:07;8.13;;;4.03;;
25435;SDS011;13363;52.772;-3.890;2022-07-24T04:54:32;11.17;;;4.57;;
25435;SDS011;13363;52.772;-3.890;2022-07-24T04:56:58;14.27;;;4.73;;
25435;SDS011;13363;52.772;-3.890;2022-07-24T04:59:24;14.10;;;5.30;;
25435;SDS011;13363;52.772;-3.890;2022-07-24T05:01:50;8.40;;;4.53;;
25435;SDS011;13363;52.772;-3.890;2022-07-24T05:04:19;7.97;;;4.73;;
25435;SDS011;13363;52.772;-3.890;2022-07-24T05:06:45;10.30;;;4.20;;
25435;SDS011;13363;52.772;-3.890;2022-07-24T05:09:11;9.37;;;3.57;;
25435;SDS011;13363;52.772;-3.890;2022-07-24T05:11:37;7.47;;;3.70;;
25435;SDS011;13363;52.772;-3.890;2022-07-24T05:14:03;7.30;;;4.93;;
25435;SDS011;13363;52.772;-3.890;2022-07-24T05:16:29;9.13;;;4.20;;
25435;SDS011;13363;52.772;-3.890;2022-07-24T05:18:54;10.17;;;4.20;;
25435;SDS011;13363;52.772;-3.890;2022-07-24T05:21:20;9.27;;;4.00;;
25435;SDS011;13363;52.772;-3.890;2022-07-24T05:23:46;6.73;;;4.37;;
25435;SDS011;13363;52.772;-3.890;2022-07-24T05:26:12;7.37;;;3.93;;
25435;SDS011;13363;52.772;-3.890;2022-07-24T05:28:38;7.50;;;2.93;;
25435;SDS011;13363;52.772;-3.890;2022-07-24T05:31:04;7.03;;;4.00;;
25435;SDS011;13363;52.772;-3.890;2022-07-24T05:33:30;11.07;;;3.93;;
25435;SDS011;13363;52.772;-3.890;2022-07-24T05:35:56;6.40;;;3.13;;
25435;SDS011;13363;52.772;-3.890;2022-07-24T05:38:22;8.30;;;3.67;;
25435;SDS011;13363;52.772;-3.890;2022-07-24T05:40:48;10.60;;;4.27;;
25435;SDS011;13363;52.772;-3.890;2022-07-24T05:43:13;7.13;;;3.87;;
25435;SDS011;13363;52.772;-3.890;2022-07-24T05:45:41;9.30;;;3.73;;
25435;SDS011;13363;52.772;-3.890;2022-07-24T05:48:07;6.07;;;4.27;;
25435;SDS011;13363;52.772;-3.890;2022-07-24T05:50:33;4.47;;;3.47;;
25435;SDS011;13363;52.772;-3.890;2022-07-24T05:52:59;9.03;;;3.90;;
25435;SDS011;13363;52.772;-3.890;2022-07-24T05:55:25;7.37;;;3.50;;
25435;SDS011;13363;52.772;-3.890;2022-07-24T05:57:51;5.27;;;3.70;;
25435;SDS011;13363;52.772;-3.890;2022-07-24T06:00:17;5.80;;;3.40;;
25435;SDS011;13363;52.772;-3.890;2022-07-24T06:02:46;10.90;;;4.13;;
25435;SDS011;13363;52.772;-3.890;2022-07-24T06:05:15;5.80;;;3.03;;
25435;SDS011;13363;52.772;-3.890;2022-07-24T06:07:41;7.67;;;3.47;;
25435;SDS011;13363;52.772;-3.890;2022-07-24T06:10:08;11.53;;;3.43;;
25435;SDS011;13363;52.772;-3.890;2022-07-24T06:12:34;7.57;;;3.17;;
25435;SDS011;13363;52.772;-3.890;2022-07-24T06:15:01;7.30;;;3.47;;
25435;SDS011;13363;52.772;-3.890;2022-07-24T06:17:26;7.37;;;3.50;;
25435;SDS011;13363;52.772;-3.890;2022-07-24T06:19:52;6.53;;;3.57;;
25435;SDS011;13363;52.772;-3.890;2022-07-24T06:22:18;7.37;;;3.30;;
25435;SDS011;13363;52.772;-3.890;2022-07-24T06:24:44;8.30;;;3.50;;
25435;SDS011;13363;52.772;-3.890;2022-07-24T06:27:10;7.33;;;3.80;;
25435;SDS011;13363;52.772;-3.890;2022-07-24T06:29:36;7.57;;;3.50;;
25435;SDS011;13363;52.772;-3.890;2022-07-24T06:32:02;5.40;;;3.13;;
25435;SDS011;13363;52.772;-3.890;2022-07-24T06:34:28;7.90;;;3.50;;
25435;SDS011;13363;52.772;-3.890;2022-07-24T06:36:55;5.20;;;3.10;;
25435;SDS011;13363;52.772;-3.890;2022-07-24T06:39:21;8.33;;;3.53;;
25435;SDS011;13363;52.772;-3.890;2022-07-24T06:41:46;7.27;;;3.07;;
25435;SDS011;13363;52.772;-3.890;2022-07-24T06:44:13;5.40;;;3.17;;
25435;SDS011;13363;52.772;-3.890;2022-07-24T06:46:39;5.77;;;3.60;;
25435;SDS011;13363;52.772;-3.890;2022-07-24T06:49:05;7.47;;;3.37;;
25435;SDS011;13363;52.772;-3.890;2022-07-24T06:51:31;6.53;;;3.40;;
25435;SDS011;13363;52.772;-3.890;2022-07-24T06:53:56;6.60;;;3.30;;
25435;SDS011;13363;52.772;-3.890;2022-07-24T06:56:22;6.57;;;3.30;;
25435;SDS011;13363;52.772;-3.890;2022-07-24T06:58:48;8.03;;;3.37;;
25435;SDS011;13363;52.772;-3.890;2022-07-24T07:01:14;9.00;;;3.27;;
25435;SDS011;13363;52.772;-3.890;2022-07-24T07:03:40;7.93;;;3.13;;
25435;SDS011;13363;52.772;-3.890;2022-07-24T07:06:07;6.83;;;3.30;;
25435;SDS011;13363;52.772;-3.890;2022-07-24T07:08:33;8.70;;;3.37;;
25435;SDS011;13363;52.772;-3.890;2022-07-24T07:10:59;7.00;;;3.47;;
25435;SDS011;13363;52.772;-3.890;2022-07-24T07:13:25;9.60;;;3.30;;
25435;SDS011;13363;52.772;-3.890;2022-07-24T07:15:51;5.80;;;3.20;;
25435;SDS011;13363;52.772;-3.890;2022-07-24T07:18:17;8.47;;;3.47;;
25435;SDS011;13363;52.772;-3.890;2022-07-24T07:20:43;8.03;;;3.20;;
25435;SDS011;13363;52.772;-3.890;2022-07-24T07:23:09;7.60;;;3.60;;
25435;SDS011;13363;52.772;-3.890;2022-07-24T07:25:35;9.67;;;3.70;;
25435;SDS011;13363;52.772;-3.890;2022-07-24T07:28:00;12.87;;;3.50;;
25435;SDS011;13363;52.772;-3.890;2022-07-24T07:30:27;6.17;;;2.87;;
25435;SDS011;13363;52.772;-3.890;2022-07-24T07:32:52;6.73;;;3.30;;
25435;SDS011;13363;52.772;-3.890;2022-07-24T07:35:18;8.03;;;3.10;;
25435;SDS011;13363;52.772;-3.890;2022-07-24T07:37:46;5.50;;;3.57;;
25435;SDS011;13363;52.772;-3.890;2022-07-24T07:40:12;6.77;;;3.23;;
25435;SDS011;13363;52.772;-3.890;2022-07-24T07:42:38;10.60;;;3.40;;
25435;SDS011;13363;52.772;-3.890;2022-07-24T07:45:04;4.47;;;2.90;;
25435;SDS011;13363;52.772;-3.890;2022-07-24T07:47:30;10.40;;;2.83;;
25435;SDS011;13363;52.772;-3.890;2022-07-24T07:49:56;7.10;;;3.30;;
25435;SDS011;13363;52.772;-3.890;2022-07-24T07:52:22;6.00;;;2.93;;
25435;SDS011;13363;52.772;-3.890;2022-07-24T07:54:48;7.27;;;3.47;;
25435;SDS011;13363;52.772;-3.890;2022-07-24T07:57:15;5.90;;;2.70;;
25435;SDS011;13363;52.772;-3.890;2022-07-24T07:59:41;4.57;;;2.60;;
25435;SDS011;13363;52.772;-3.890;2022-07-24T08:02:06;7.97;;;3.07;;
25435;SDS011;13363;52.772;-3.890;2022-07-24T08:04:32;2.93;;;2.63;;
25435;SDS011;13363;52.772;-3.890;2022-07-24T08:06:58;5.67;;;2.73;;
25435;SDS011;13363;52.772;-3.890;2022-07-24T08:12:15;5.40;;;2.60;;
25435;SDS011;13363;52.772;-3.890;2022-07-24T08:14:41;7.03;;;2.90;;
25435;SDS011;13363;52.772;-3.890;2022-07-24T08:17:07;7.07;;;2.80;;
25435;SDS011;13363;52.772;-3.890;2022-07-24T08:19:33;4.27;;;2.60;;
25435;SDS011;13363;52.772;-3.890;2022-07-24T08:21:59;9.03;;;2.87;;
25435;SDS011;13363;52.772;-3.890;2022-07-24T08:24:25;9.07;;;3.17;;
25435;SDS011;13363;52.772;-3.890;2022-07-24T08:26:50;3.30;;;2.27;;
25435;SDS011;13363;52.772;-3.890;2022-07-24T08:29:16;4.77;;;2.80;;
25435;SDS011;13363;52.772;-3.890;2022-07-24T08:31:42;3.07;;;2.10;;
25435;SDS011;13363;52.772;-3.890;2022-07-24T08:34:08;4.27;;;2.60;;
25435;SDS011;13363;52.772;-3.890;2022-07-24T08:36:34;3.87;;;2.67;;
25435;SDS011;13363;52.772;-3.890;2022-07-24T08:39:00;5.00;;;2.70;;
25435;SDS011;13363;52.772;-3.890;2022-07-24T08:41:30;6.80;;;2.90;;
25435;SDS011;13363;52.772;-3.890;2022-07-24T08:43:59;4.23;;;2.17;;
25435;SDS011;13363;52.772;-3.890;2022-07-24T08:46:26;2.03;;;1.67;;
25435;SDS011;13363;52.772;-3.890;2022-07-24T08:48:53;3.17;;;2.27;;
25435;SDS011;13363;52.772;-3.890;2022-07-24T08:51:19;3.40;;;2.40;;
25435;SDS011;13363;52.772;-3.890;2022-07-24T08:53:47;2.83;;;2.33;;
25435;SDS011;13363;52.772;-3.890;2022-07-24T08:56:15;2.80;;;2.30;;
25435;SDS011;13363;52.772;-3.890;2022-07-24T08:58:42;2.93;;;1.90;;
25435;SDS011;13363;52.772;-3.890;2022-07-24T09:01:08;2.33;;;2.13;;
25435;SDS011;13363;52.772;-3.890;2022-07-24T09:03:44;2.37;;;2.17;;
25435;SDS011;13363;52.772;-3.890;2022-07-24T09:06:13;2.93;;;2.57;;
25435;SDS011;13363;52.772;-3.890;2022-07-24T09:08:40;2.30;;;2.20;;
25435;SDS011;13363;52.772;-3.890;2022-07-24T09:11:07;3.23;;;2.73;;
25435;SDS011;13363;52.772;-3.890;2022-07-24T09:13:34;3.33;;;2.33;;
25435;SDS011;13363;52.772;-3.890;2022-07-24T09:16:24;2.47;;;2.20;;
25435;SDS011;13363;52.772;-3.890;2022-07-24T09:19:07;2.60;;;2.40;;
25435;SDS011;13363;52.772;-3.890;2022-07-24T09:21:35;2.30;;;1.70;;
25435;SDS011;13363;52.772;-3.890;2022-07-24T09:24:12;2.43;;;2.27;;
25435;SDS011;13363;52.772;-3.890;2022-07-24T09:26:43;2.53;;;1.97;;
25435;SDS011;13363;52.772;-3.890;2022-07-24T09:29:11;1.97;;;1.87;;
25435;SDS011;13363;52.772;-3.890;2022-07-24T09:31:51;2.40;;;2.00;;
25435;SDS011;13363;52.772;-3.890;2022-07-24T09:34:22;2.38;;;2.08;;
25435;SDS011;13363;52.772;-3.890;2022-07-24T09:36:54;1.70;;;1.60;;
25435;SDS011;13363;52.772;-3.890;2022-07-24T09:39:30;1.97;;;1.90;;
25435;SDS011;13363;52.772;-3.890;2022-07-24T09:41:57;1.90;;;1.80;;
25435;SDS011;13363;52.772;-3.890;2022-07-24T09:44:24;1.90;;;1.70;;
25435;SDS011;13363;52.772;-3.890;2022-07-24T09:47:06;1.50;;;1.50;;
25435;SDS011;13363;52.772;-3.890;2022-07-24T09:49:35;2.37;;;1.60;;
25435;SDS011;13363;52.772;-3.890;2022-07-24T09:54:31;1.03;;;1.03;;
25435;SDS011;13363;52.772;-3.890;2022-07-24T09:57:17;2.00;;;1.10;;
25435;SDS011;13363;52.772;-3.890;2022-07-24T09:59:56;1.97;;;1.40;;
25435;SDS011;13363;52.772;-3.890;2022-07-24T10:02:25;1.40;;;1.20;;
25435;SDS011;13363;52.772;-3.890;2022-07-24T10:04:52;1.50;;;1.20;;
25435;SDS011;13363;52.772;-3.890;2022-07-24T10:07:20;1.07;;;1.07;;
25435;SDS011;13363;52.772;-3.890;2022-07-24T10:09:48;2.23;;;1.00;;
25435;SDS011;13363;52.772;-3.890;2022-07-24T10:12:18;1.00;;;1.00;;
25435;SDS011;13363;52.772;-3.890;2022-07-24T10:14:47;0.90;;;0.90;;
25435;SDS011;13363;52.772;-3.890;2022-07-24T10:17:15;1.60;;;0.90;;
25435;SDS011;13363;52.772;-3.890;2022-07-24T10:19:48;1.50;;;1.00;;
25435;SDS011;13363;52.772;-3.890;2022-07-24T10:22:17;0.70;;;0.70;;
25435;SDS011;13363;52.772;-3.890;2022-07-24T10:27:31;0.70;;;0.70;;
25435;SDS011;13363;52.772;-3.890;2022-07-24T10:30:00;0.63;;;0.60;;
25435;SDS011;13363;52.772;-3.890;2022-07-24T10:32:33;0.60;;;0.60;;
25435;SDS011;13363;52.772;-3.890;2022-07-24T10:35:07;0.60;;;0.60;;
25435;SDS011;13363;52.772;-3.890;2022-07-24T10:40:22;0.40;;;0.40;;
25435;SDS011;13363;52.772;-3.890;2022-07-24T10:45:34;0.80;;;0.67;;
25435;SDS011;13363;52.772;-3.890;2022-07-24T10:48:35;0.70;;;0.70;;
25435;SDS011;13363;52.772;-3.890;2022-07-24T11:06:48;0.40;;;0.40;;
25435;SDS011;13363;52.772;-3.890;2022-07-24T11:09:17;1.38;;;0.50;;
25435;SDS011;13363;52.772;-3.890;2022-07-24T11:14:25;0.60;;;0.60;;
25435;SDS011;13363;52.772;-3.890;2022-07-24T11:20:15;0.50;;;0.50;;
25435;SDS011;13363;52.772;-3.890;2022-07-24T11:22:51;0.50;;;0.50;;
25435;SDS011;13363;52.772;-3.890;2022-07-24T11:25:19;0.60;;;0.60;;
25435;SDS011;13363;52.772;-3.890;2022-07-24T11:27:47;0.55;;;0.50;;
25435;SDS011;13363;52.772;-3.890;2022-07-24T11:30:17;0.57;;;0.57;;
25435;SDS011;13363;52.772;-3.890;2022-07-24T11:32:45;0.30;;;0.30;;
25435;SDS011;13363;52.772;-3.890;2022-07-24T11:35:12;0.50;;;0.43;;
25435;SDS011;13363;52.772;-3.890;2022-07-24T11:37:39;0.45;;;0.45;;
25435;SDS011;13363;52.772;-3.890;2022-07-24T11:40:07;0.40;;;0.40;;
25435;SDS011;13363;52.772;-3.890;2022-07-24T11:42:34;0.30;;;0.30;;
25435;SDS011;13363;52.772;-3.890;2022-07-24T11:45:01;0.73;;;0.50;;
25435;SDS011;13363;52.772;-3.890;2022-07-24T11:47:28;0.40;;;0.40;;
25435;SDS011;13363;52.772;-3.890;2022-07-24T11:49:55;0.50;;;0.50;;
25435;SDS011;13363;52.772;-3.890;2022-07-24T11:54:55;1.42;;;0.88;;
25435;SDS011;13363;52.772;-3.890;2022-07-24T11:57:27;0.93;;;0.60;;
25435;SDS011;13363;52.772;-3.890;2022-07-24T11:59:58;0.45;;;0.30;;
25435;SDS011;13363;52.772;-3.890;2022-07-24T12:02:24;0.55;;;0.55;;
25435;SDS011;13363;52.772;-3.890;2022-07-24T12:04:51;0.50;;;0.50;;
25435;SDS011;13363;52.772;-3.890;2022-07-24T12:07:25;0.30;;;0.30;;
25435;SDS011;13363;52.772;-3.890;2022-07-24T12:09:58;0.30;;;0.27;;
25435;SDS011;13363;52.772;-3.890;2022-07-24T12:15:08;0.40;;;0.40;;
25435;SDS011;13363;52.772;-3.890;2022-07-24T12:17:56;0.20;;;0.20;;
25435;SDS011;13363;52.772;-3.890;2022-07-24T12:20:23;0.20;;;0.20;;
25435;SDS011;13363;52.772;-3.890;2022-07-24T12:22:57;0.20;;;0.20;;
25435;SDS011;13363;52.772;-3.890;2022-07-24T12:25:27;0.45;;;0.45;;
25435;SDS011;13363;52.772;-3.890;2022-07-24T12:28:31;0.33;;;0.33;;
25435;SDS011;13363;52.772;-3.890;2022-07-24T12:30:54;0.60;;;0.33;;
25435;SDS011;13363;52.772;-3.890;2022-07-24T12:33:26;0.40;;;0.30;;
25435;SDS011;13363;52.772;-3.890;2022-07-24T12:41:20;0.20;;;0.20;;
25435;SDS011;13363;52.772;-3.890;2022-07-24T12:44:00;0.30;;;0.30;;
25435;SDS011;13363;52.772;-3.890;2022-07-24T12:46:31;0.20;;;0.20;;
25435;SDS011;13363;52.772;-3.890;2022-07-24T12:49:07;0.93;;;0.33;;
25435;SDS011;13363;52.772;-3.890;2022-07-24T12:51:44;0.20;;;0.20;;
25435;SDS011;13363;52.772;-3.890;2022-07-24T12:57:23;0.30;;;0.30;;
25435;SDS011;13363;52.772;-3.890;2022-07-24T12:59:49;0.13;;;0.13;;
25435;SDS011;13363;52.772;-3.890;2022-07-24T13:02:17;0.20;;;0.20;;
25435;SDS011;13363;52.772;-3.890;2022-07-24T13:04:49;0.30;;;0.30;;
25435;SDS011;13363;52.772;-3.890;2022-07-24T13:07:18;0.10;;;0.10;;
25435;SDS011;13363;52.772;-3.890;2022-07-24T13:09:45;0.20;;;0.20;;
25435;SDS011;13363;52.772;-3.890;2022-07-24T13:12:11;0.63;;;0.40;;
25435;SDS011;13363;52.772;-3.890;2022-07-24T13:14:38;0.27;;;0.27;;
25435;SDS011;13363;52.772;-3.890;2022-07-24T13:17:05;0.33;;;0.30;;
25435;SDS011;13363;52.772;-3.890;2022-07-24T13:19:35;0.20;;;0.20;;
25435;SDS011;13363;52.772;-3.890;2022-07-24T13:22:02;0.20;;;0.20;;
25435;SDS011;13363;52.772;-3.890;2022-07-24T13:24:28;0.10;;;0.10;;
25435;SDS011;13363;52.772;-3.890;2022-07-24T13:26:58;0.00;;;0.00;;
25435;SDS011;13363;52.772;-3.890;2022-07-24T13:29:25;0.17;;;0.17;;
25435;SDS011;13363;52.772;-3.890;2022-07-24T13:31:52;0.20;;;0.20;;
25435;SDS011;13363;52.772;-3.890;2022-07-24T13:34:18;0.20;;;0.20;;
25435;SDS011;13363;52.772;-3.890;2022-07-24T13:36:45;0.30;;;0.30;;
25435;SDS011;13363;52.772;-3.890;2022-07-24T13:39:11;0.20;;;0.20;;
25435;SDS011;13363;52.772;-3.890;2022-07-24T13:41:38;0.40;;;0.30;;
25435;SDS011;13363;52.772;-3.890;2022-07-24T13:44:04;0.20;;;0.20;;
25435;SDS011;13363;52.772;-3.890;2022-07-24T13:46:31;0.30;;;0.30;;
25435;SDS011;13363;52.772;-3.890;2022-07-24T13:48:59;0.20;;;0.20;;
25435;SDS011;13363;52.772;-3.890;2022-07-24T13:51:27;0.20;;;0.20;;
25435;SDS011;13363;52.772;-3.890;2022-07-24T13:53:53;0.37;;;0.30;;
25435;SDS011;13363;52.772;-3.890;2022-07-24T13:56:19;1.10;;;0.30;;
25435;SDS011;13363;52.772;-3.890;2022-07-24T13:58:48;0.30;;;0.30;;
25435;SDS011;13363;52.772;-3.890;2022-07-24T14:01:16;0.60;;;0.30;;
25435;SDS011;13363;52.772;-3.890;2022-07-24T14:03:45;0.43;;;0.43;;
25435;SDS011;13363;52.772;-3.890;2022-07-24T14:06:11;0.20;;;0.20;;
25435;SDS011;13363;52.772;-3.890;2022-07-24T14:08:37;0.53;;;0.40;;
25435;SDS011;13363;52.772;-3.890;2022-07-24T14:11:05;0.30;;;0.30;;
25435;SDS011;13363;52.772;-3.890;2022-07-24T14:13:31;0.53;;;0.20;;
25435;SDS011;13363;52.772;-3.890;2022-07-24T14:15:57;0.40;;;0.40;;
25435;SDS011;13363;52.772;-3.890;2022-07-24T14:18:23;0.47;;;0.30;;
25435;SDS011;13363;52.772;-3.890;2022-07-24T14:20:49;0.30;;;0.30;;
25435;SDS011;13363;52.772;-3.890;2022-07-24T14:23:15;0.53;;;0.20;;
25435;SDS011;13363;52.772;-3.890;2022-07-24T14:25:42;0.20;;;0.20;;
25435;SDS011;13363;52.772;-3.890;2022-07-24T14:28:09;0.40;;;0.37;;
25435;SDS011;13363;52.772;-3.890;2022-07-24T14:30:46;0.30;;;0.30;;
25435;SDS011;13363;52.772;-3.890;2022-07-24T14:33:12;0.40;;;0.40;;
25435;SDS011;13363;52.772;-3.890;2022-07-24T14:35:38;0.50;;;0.50;;
25435;SDS011;13363;52.772;-3.890;2022-07-24T14:38:04;0.60;;;0.40;;
25435;SDS011;13363;52.772;-3.890;2022-07-24T14:40:30;0.30;;;0.30;;
25435;SDS011;13363;52.772;-3.890;2022-07-24T14:42:56;0.40;;;0.40;;
25435;SDS011;13363;52.772;-3.890;2022-07-24T14:45:22;0.40;;;0.40;;
25435;SDS011;13363;52.772;-3.890;2022-07-24T14:47:48;0.30;;;0.30;;
25435;SDS011;13363;52.772;-3.890;2022-07-24T14:50:14;0.40;;;0.40;;
25435;SDS011;13363;52.772;-3.890;2022-07-24T14:52:40;0.50;;;0.50;;
25435;SDS011;13363;52.772;-3.890;2022-07-24T14:55:06;0.30;;;0.30;;
25435;SDS011;13363;52.772;-3.890;2022-07-24T14:57:33;0.70;;;0.70;;
25435;SDS011;13363;52.772;-3.890;2022-07-24T14:59:59;0.57;;;0.37;;
25435;SDS011;13363;52.772;-3.890;2022-07-24T15:02:25;0.40;;;0.40;;
25435;SDS011;13363;52.772;-3.890;2022-07-24T15:04:51;0.30;;;0.30;;
25435;SDS011;13363;52.772;-3.890;2022-07-24T15:07:17;0.40;;;0.40;;
25435;SDS011;13363;52.772;-3.890;2022-07-24T15:09:43;0.63;;;0.60;;
25435;SDS011;13363;52.772;-3.890;2022-07-24T15:12:09;0.60;;;0.60;;
25435;SDS011;13363;52.772;-3.890;2022-07-24T15:14:35;0.60;;;0.60;;
25435;SDS011;13363;52.772;-3.890;2022-07-24T15:17:01;0.83;;;0.83;;
25435;SDS011;13363;52.772;-3.890;2022-07-24T15:19:27;1.10;;;1.10;;
25435;SDS011;13363;52.772;-3.890;2022-07-24T15:21:53;1.13;;;1.10;;